Portada
METAR-TAF:

METAR-TAF

Aeropuertos :

Aeropuerto Internacional de Dusambé

Dusambé, Tayikistán

latitud: 38-33N, longitud: 068-47E, altitud: 803 m

Observación

El informe se hizo hace 32 minutos, a las 03:00 UTC
Viento 2 kt con dirección variable
Temperatura 21°C
Humedad 56%
Presión 1014 hPa
Visibilidad 10 km o más

METAR: UTDD 250300Z VRB01MPS 9999 NSC 21/12 Q1014 R09/D NOSIG RMK QFE692/0923

Hora: 08:32 (03:32 UTC)

Pronóstico

El informe se hizo hace 3 horas y 32 minutos, a las 00:00 UTC
Pronóstico válido del 25 a las 01 UTC al 25 a las 13 UTC
Viento 4 kt con dirección variable
Visibilidad: 6000 m
Escasas nubes a una altura de 6600 ft, Cumulonimbus.
Nubes dispersas a una altura de 13000 ft
Probabilidad 40% :
Temporalmente
del 25 a las 08 UTC al 25 a las 13 UTC
tormenta

TAF: UTDD 250000Z 2501/2513 VRB02MPS 6000 FEW066CB SCT130 PROB40 TEMPO 2508/2513 TS

Observaciones y pronósticos meteorológicos de más de 4000 aeropuertos (mensajes METAR y TAF).

Los puntos amarillos y rojos representan las estaciones disponibles.

Ponga el ratón en el punto deseado para ver el nombre de la estación.

Haga clic para ver las observaciones y los pronósticos meteorológicos.

Para cambiar el mapa : haga clic en los botones verdes con una cruz de color negro para hacer un zoom, en el botón verde con un guión para alejar o en las flechas verdes para mapas adyacentes.


METAR-TAF: